首页
METAR-TAF:

METAR-TAF

机场 :

天津滨海国际机场

天津, 中华人民共和国

纬度: 39-11N, 经度: 117-21E, 海拔: 3米

当前天气观测

该预报发布于15分钟前的08:30 UTC
风速8节,风向西转西南,在南转西南西转西北之间变化
温度 34°C
湿度 25%
气压 1004 hPa
能见度10公里或以上
散云层高于3300英尺

METAR: ZBTJ 160830Z 25004MPS 210V290 9999 SCT033 34/11 Q1004 NOSIG

时间: 16:45 (08:45 UTC)

预报

该预报发布于5小时和44分钟前的03:01 UTC
预报有效从16日的 06点(UTC)到 17日的 06点(UTC)
风速8节,风向西转西南
能見度: 5000
霾,

TAF: ZBTJ 160301Z 1606/1706 24004MPS 5000 HZ NSC TX36/1706Z TN23/1621Z

超过4000个机场的气象观测和天气预报(METAR&TAF报告)。

可查询的气象台以黄色和红色小点在地图上表示。

将鼠标移到小点上方,可查看气象台名称。

然后点击查看天气观测和预报。

如需切换地图:点击带黑十字的绿色按钮放大地图;点击带横线的绿色按钮缩小地图;或者点击绿色箭头查看邻近地区的地图。


METAR-TAF: